EGSSLPFR

Guest
Details From EGSS - London Stansted
To LPFR - Faro
Flight Number -
Tags Generated
Created
Modified
Stats Distance 958 nm / 1,775 km
Max Altitude 0 ft / 0 m
Waypoints 6
Social Downloads 0
Likes 0
Share VATSIM

Download

Looking for another format? Having issues loading an existing format? Contact us
Advertisement - Login to hide

Notes

Generated

Route

EGSS DR BAKUP BARDI VFA10 LPFR

ID Type Via Altitude Latitude Longitude Leg Dist Tot Dist Heading (true) Name
O EGSS APT - 0 ft / 0 m 51.87508˚ 0.21993˚ - 0 nm - -
DR NDB - 0 ft / 0 m 48.48402˚ -2.05049˚ 221 nm 221 nm 204° / 202° Dinard NDB
BAKUP FIX - 0 ft / 0 m 44.41250˚ -4.43611˚ 263 nm 485 nm 203° / 201° -
BARDI FIX - 0 ft / 0 m 40.58349˚ -6.30246˚ 244 nm 729 nm 200° / 199° -
VFA10 FIX - 0 ft / 0 m 37.01784˚ -7.99512˚ 228 nm 957 nm 201° / 200° -
O LPFR APT - 0 ft / 0 m 37.01729˚ -7.98609˚ 0 nm 958 nm 94° / 94° -

Altitude Profile

Advertisement - Login to hide

Weather


0- 5 10 15 20 25 30 35+ Temperature / ° C

Clouds and Precipitation
Forecast for 2018-05-20 18:00 UTC. Updated an hour ago

Ground ~20,000 ft ~40,000 ft Winds

EGSS

Details ICAO EGSS (STN)
Name London Stansted
Region United Kingdom
Timezone Europe/London (UTC+1.0)
Stats Elevation 348 ft / 106 m (AMSL)
Location 51.885097° 0.234962°
Runways 1
Magnetic Variation 0.299° W

METAR

EGSS 201620Z AUTO 13008KT 9999 NCD 19/10 Q1020

Decode

TAF

TAF EGSS 201100Z 2012/2118 12005KT 9999 FEW035 BECMG 2021/2024 6000 TEMPO 2100/2108 2500 BR BKN002 PROB40 2101/2107 0200 FG OVC000 BECMG 2107/2110 9999

Decode

Departure Runways

ID Width Length Bearing (true) Bearing (mag) Surface Threshold Offset Overrun Length
04 151 ft / 46 m 10,011 ft / 3,052 m 42.79° 43.09° Asphalt 994 ft / 303 m 0 ft / 0 m
22 151 ft / 46 m 10,011 ft / 3,052 m 222.81° 223.11° Asphalt 0 ft / 0 m 0 ft / 0 m

LPFR

Details ICAO LPFR (FAO)
Name Faro
Region Portugal
Timezone Europe/Lisbon (UTC+1.0)
Stats Elevation 24 ft / 7 m (AMSL)
Location 37.015336° -7.972327°
Runways 1
Magnetic Variation 1.884° W

METAR

LPFR 201630Z 09005KT 060V120 9999 FEW030CB 19/15 Q1013

Decode

TAF

TAF LPFR 201100Z 2012/2112 22010KT 9999 FEW030TCU PROB40 TEMPO 2012/2021 VRB15G25KT 5000 TSRA SCT025CB BECMG 2015/2018 30008KT BECMG 2021/2024 VRB05KT SCT012 PROB30 TEMPO 2100/2109 5000 BR BKN005 BECMG 2109/2111 24010KT FEW030

Decode

Destination Runways

ID Width Length Bearing (true) Bearing (mag) Surface Threshold Offset Overrun Length
10 148 ft / 45 m 8,148 ft / 2,484 m 100.08° 101.96° Asphalt 148 ft / 45 m 0 ft / 0 m
28 148 ft / 45 m 8,148 ft / 2,484 m 280.10° 281.98° Asphalt 148 ft / 45 m 0 ft / 0 m

Approach Navaids

Runway Type Ident Frequency Range Bearing (true) Bearing (mag) Slope Elevation
28 Localiser IIF 109.50 MHz 18 nm / 33 km 280.16° 282.05° - 24 ft / 7 m (AMSL)
28 Glidescope IIF 109.50 MHz 10 nm / 19 km 280.09° 281.97° 3.00° 24 ft / 7 m (AMSL)
28 DME IIF 109.50 MHz 18 nm / 33 km - - - 24 ft / 7 m (AMSL)

Popular Alternatives